createdAt,value
2023-03-28T00:01:09.655Z,100.00
2023-03-28T00:03:41.307Z,100.00
2023-03-28T00:06:13.359Z,100.00
2023-03-28T00:08:46.068Z,100.00
2023-03-28T00:11:19.594Z,100.00
2023-03-28T00:13:53.695Z,100.00
2023-03-28T00:16:32.225Z,100.00
2023-03-28T00:19:05.648Z,100.00
2023-03-28T00:21:37.592Z,100.00
2023-03-28T00:24:10.897Z,100.00
2023-03-28T00:26:42.899Z,100.00
2023-03-28T00:29:15.798Z,100.00
2023-03-28T00:34:52.536Z,100.00
2023-03-28T00:40:39.259Z,100.00
2023-03-28T00:43:11.401Z,100.00
2023-03-28T00:45:43.150Z,100.00
2023-03-28T00:48:15.587Z,100.00
2023-03-28T00:50:49.547Z,100.00
2023-03-28T00:53:21.130Z,100.00
2023-03-28T00:55:53.047Z,100.00
2023-03-28T00:58:24.693Z,100.00
2023-03-28T01:00:56.212Z,100.00
2023-03-28T01:03:28.053Z,100.00
2023-03-28T01:05:59.845Z,100.00
2023-03-28T01:08:31.521Z,100.00
2023-03-28T01:11:03.612Z,100.00
2023-03-28T01:13:35.240Z,100.00
2023-03-28T01:16:07.046Z,100.00
2023-03-28T01:18:41.322Z,100.00
2023-03-28T01:21:13.154Z,100.00
2023-03-28T01:23:44.664Z,100.00
2023-03-28T01:26:16.347Z,100.00
2023-03-28T01:28:47.958Z,100.00
2023-03-28T01:31:19.821Z,100.00
2023-03-28T01:33:51.352Z,100.00
2023-03-28T01:36:33.873Z,100.00
2023-03-28T01:39:08.706Z,100.00
2023-03-28T01:41:40.470Z,100.00
2023-03-28T01:44:12.007Z,100.00
2023-03-28T01:46:43.788Z,100.00
2023-03-28T01:49:15.537Z,100.00
2023-03-28T01:51:47.110Z,100.00
2023-03-28T01:54:18.807Z,100.00
2023-03-28T01:56:50.727Z,100.00
2023-03-28T01:59:22.638Z,100.00
2023-03-28T02:01:54.232Z,100.00
2023-03-28T02:04:26.048Z,100.00
2023-03-28T02:06:57.526Z,100.00
2023-03-28T02:09:29.041Z,100.00
2023-03-28T02:12:00.665Z,100.00
2023-03-28T02:14:32.570Z,100.00
2023-03-28T02:17:04.805Z,100.00
2023-03-28T02:19:38.214Z,100.00
2023-03-28T02:22:09.703Z,100.00
2023-03-28T02:24:41.780Z,100.00
2023-03-28T02:27:13.289Z,100.00
2023-03-28T02:29:45.015Z,100.00
2023-03-28T02:32:16.618Z,100.00
2023-03-28T02:34:49.217Z,100.00
2023-03-28T02:37:20.840Z,100.00
2023-03-28T02:39:52.389Z,100.00
2023-03-28T02:42:23.912Z,100.00
2023-03-28T02:44:55.545Z,100.00
2023-03-28T02:47:27.081Z,100.00
2023-03-28T02:49:58.603Z,100.00
2023-03-28T02:52:35.410Z,100.00
2023-03-28T02:55:07.369Z,100.00
2023-03-28T02:57:38.863Z,100.00
2023-03-28T03:00:13.490Z,100.00
2023-03-28T03:02:45.140Z,100.00
2023-03-28T03:05:17.958Z,100.00
2023-03-28T03:07:49.873Z,100.00
2023-03-28T03:10:22.482Z,100.00
2023-03-28T03:12:54.288Z,100.00
2023-03-28T03:15:26.233Z,100.00
2023-03-28T03:17:58.638Z,100.00
2023-03-28T03:20:33.956Z,100.00
2023-03-28T03:23:06.209Z,100.00
2023-03-28T03:25:37.962Z,100.00
2023-03-28T03:28:09.892Z,100.00
2023-03-28T03:30:41.640Z,100.00
2023-03-28T03:33:16.786Z,100.00
2023-03-28T03:35:50.256Z,100.00
2023-03-28T03:38:21.856Z,100.00
2023-03-28T03:40:53.797Z,100.00
2023-03-28T03:43:27.697Z,100.00
2023-03-28T03:46:00.410Z,100.00
2023-03-28T03:48:32.180Z,100.00
2023-03-28T03:51:03.940Z,100.00
2023-03-28T03:53:35.433Z,100.00
2023-03-28T03:56:07.318Z,100.00
2023-03-28T03:58:38.837Z,100.00
2023-03-28T04:01:14.137Z,100.00
2023-03-28T04:03:47.940Z,100.00
2023-03-28T04:06:19.760Z,100.00
2023-03-28T04:08:54.159Z,100.00
2023-03-28T04:11:26.255Z,100.00
2023-03-28T04:13:57.729Z,100.00
2023-03-28T04:16:30.194Z,100.00
2023-03-28T04:19:13.860Z,100.00
2023-03-28T04:21:48.128Z,100.00
2023-03-28T04:24:21.042Z,100.00
2023-03-28T04:26:56.079Z,100.00
2023-03-28T04:29:30.890Z,100.00
2023-03-28T04:32:05.589Z,100.00
2023-03-28T04:34:38.891Z,100.00
2023-03-28T04:37:10.867Z,100.00
2023-03-28T04:39:44.704Z,100.00
2023-03-28T04:42:16.474Z,100.00
2023-03-28T04:44:48.030Z,100.00
2023-03-28T04:47:20.281Z,100.00
2023-03-28T04:49:52.664Z,100.00
2023-03-28T04:52:24.598Z,100.00
2023-03-28T04:54:56.088Z,100.00
2023-03-28T04:57:28.023Z,100.00
2023-03-28T04:59:59.517Z,100.00
2023-03-28T05:02:31.610Z,100.00
2023-03-28T05:05:03.742Z,100.00
2023-03-28T05:07:35.921Z,100.00
2023-03-28T05:10:07.550Z,100.00
2023-03-28T05:12:39.386Z,100.00
2023-03-28T05:15:11.140Z,100.00
2023-03-28T05:17:53.296Z,100.00
2023-03-28T05:20:25.026Z,100.00
2023-03-28T05:22:57.276Z,100.00
2023-03-28T05:25:28.761Z,100.00
2023-03-28T05:28:00.414Z,100.00
2023-03-28T05:30:32.050Z,100.00
2023-03-28T05:33:03.770Z,100.00
2023-03-28T05:35:37.356Z,100.00
2023-03-28T05:38:09.328Z,100.00
2023-03-28T05:40:40.862Z,100.00
2023-03-28T05:43:12.800Z,100.00
2023-03-28T05:45:44.524Z,100.00
2023-03-28T05:48:16.413Z,100.00
2023-03-28T05:50:47.972Z,100.00
2023-03-28T05:53:20.538Z,100.00
2023-03-28T05:55:52.052Z,100.00
2023-03-28T05:58:24.366Z,100.00
2023-03-28T06:00:56.511Z,100.00
2023-03-28T06:03:31.766Z,100.00
2023-03-28T06:06:04.443Z,100.00
2023-03-28T06:08:36.422Z,100.00
2023-03-28T06:11:08.118Z,100.00
2023-03-28T06:13:39.944Z,100.00
2023-03-28T06:16:11.459Z,100.00
2023-03-28T06:18:43.339Z,100.00
2023-03-28T06:21:14.957Z,100.00
2023-03-28T06:23:46.711Z,100.00
2023-03-28T06:26:18.322Z,100.00
2023-03-28T06:28:50.146Z,100.00
2023-03-28T06:31:21.927Z,100.00
2023-03-28T06:33:54.067Z,100.00
2023-03-28T06:36:25.626Z,99.99
2023-03-28T06:38:58.395Z,97.72
2023-03-28T06:41:30.001Z,98.12
2023-03-28T06:44:01.505Z,96.99
2023-03-28T06:46:32.987Z,97.63
2023-03-28T06:49:04.854Z,95.62
2023-03-28T06:51:36.372Z,94.94
2023-03-28T06:54:08.267Z,94.30
2023-03-28T06:56:39.817Z,92.49
2023-03-28T06:59:11.556Z,92.39
2023-03-28T07:01:43.107Z,90.30
2023-03-28T07:04:14.987Z,90.95
2023-03-28T07:06:46.869Z,89.20
2023-03-28T07:09:18.798Z,88.32
2023-03-28T07:11:50.270Z,87.33
2023-03-28T07:14:21.762Z,86.38
2023-03-28T07:16:53.422Z,85.75
2023-03-28T07:19:25.302Z,84.93
2023-03-28T07:21:56.817Z,84.98
2023-03-28T07:24:28.424Z,83.52
2023-03-28T07:27:14.243Z,83.08
2023-03-28T07:29:47.657Z,82.66
2023-03-28T07:32:19.165Z,81.59
2023-03-28T07:34:51.215Z,81.47
2023-03-28T07:37:22.766Z,81.20
2023-03-28T07:39:56.409Z,79.16
2023-03-28T07:42:27.970Z,78.89
2023-03-28T07:44:59.467Z,78.08
2023-03-28T07:47:30.991Z,76.96
2023-03-28T07:50:04.021Z,75.36
2023-03-28T07:52:35.492Z,74.28
2023-03-28T07:55:07.611Z,73.48
2023-03-28T07:57:39.110Z,72.07
2023-03-28T08:00:13.414Z,71.46
2023-03-28T08:02:45.457Z,69.39
2023-03-28T08:05:17.068Z,67.53
2023-03-28T08:07:48.996Z,65.90
2023-03-28T08:10:20.981Z,64.57
2023-03-28T08:12:52.766Z,62.64
2023-03-28T08:15:24.251Z,62.09
2023-03-28T08:17:55.867Z,61.62
2023-03-28T08:20:27.365Z,62.50
2023-03-28T08:22:59.181Z,62.37
2023-03-28T08:25:30.672Z,61.94
2023-03-28T08:28:02.403Z,62.50
2023-03-28T08:30:33.914Z,61.32
2023-03-28T08:33:05.859Z,59.48
2023-03-28T08:35:37.458Z,57.79
2023-03-28T08:38:11.243Z,55.05
2023-03-28T08:40:42.942Z,53.49
2023-03-28T08:43:14.460Z,50.34
2023-03-28T08:45:46.030Z,51.09
2023-03-28T08:48:17.803Z,51.59
2023-03-28T08:50:49.330Z,47.92
2023-03-28T08:53:21.316Z,48.97
2023-03-28T08:55:53.699Z,51.43
2023-03-28T08:58:29.859Z,48.00
2023-03-28T09:01:01.475Z,47.49
2023-03-28T09:03:33.550Z,47.01
2023-03-28T09:06:05.611Z,45.71
2023-03-28T09:08:37.590Z,44.76
2023-03-28T09:11:09.246Z,46.85
2023-03-28T09:13:41.120Z,44.70
2023-03-28T09:16:12.645Z,45.46
2023-03-28T09:18:45.001Z,47.15
2023-03-28T09:21:16.687Z,46.48
2023-03-28T09:23:48.547Z,44.54
2023-03-28T09:26:22.168Z,45.60
2023-03-28T09:28:53.976Z,44.45
2023-03-28T09:31:27.122Z,43.50
2023-03-28T09:34:00.121Z,43.65
2023-03-28T09:36:41.303Z,42.56
2023-03-28T09:39:20.161Z,42.29
2023-03-28T09:41:52.515Z,45.09
2023-03-28T09:44:24.358Z,45.10
2023-03-28T09:46:56.354Z,43.83
2023-03-28T09:49:28.326Z,45.53
2023-03-28T09:51:59.797Z,46.13
2023-03-28T09:54:31.655Z,43.71
2023-03-28T09:57:03.585Z,44.83
2023-03-28T09:59:35.567Z,45.12
2023-03-28T10:02:07.062Z,45.34
2023-03-28T10:04:38.833Z,45.57
2023-03-28T10:07:10.623Z,43.64
2023-03-28T10:09:42.572Z,44.36
2023-03-28T10:12:14.052Z,45.33
2023-03-28T10:14:45.885Z,45.52
2023-03-28T10:17:17.372Z,43.51
2023-03-28T10:19:49.230Z,42.05
2023-03-28T10:22:21.031Z,41.10
2023-03-28T10:24:52.573Z,40.98
2023-03-28T10:27:24.494Z,41.97
2023-03-28T10:29:56.158Z,40.99
2023-03-28T10:32:27.700Z,41.89
2023-03-28T10:34:59.334Z,41.57
2023-03-28T10:37:31.743Z,40.54
2023-03-28T10:40:05.825Z,39.90
2023-03-28T10:42:37.395Z,38.76
2023-03-28T10:45:09.207Z,36.97
2023-03-28T10:47:40.924Z,37.11
2023-03-28T10:50:12.610Z,38.15
2023-03-28T10:52:44.181Z,39.13
2023-03-28T10:55:16.032Z,37.19
2023-03-28T10:57:47.544Z,37.78
2023-03-28T11:00:19.788Z,36.61
2023-03-28T11:02:51.657Z,36.11
2023-03-28T11:05:23.744Z,36.56
2023-03-28T11:07:55.442Z,37.97
2023-03-28T11:10:27.236Z,39.34
2023-03-28T11:12:59.302Z,37.71
2023-03-28T11:15:31.592Z,37.76
2023-03-28T11:18:03.125Z,39.62
2023-03-28T11:20:35.014Z,38.02
2023-03-28T11:23:06.955Z,37.31
2023-03-28T11:25:38.850Z,35.79
2023-03-28T11:28:10.343Z,35.96
2023-03-28T11:30:41.828Z,35.74
2023-03-28T11:33:13.960Z,38.18
2023-03-28T11:35:46.130Z,37.52
2023-03-28T11:38:20.045Z,36.47
2023-03-28T11:40:51.930Z,35.05
2023-03-28T11:43:23.474Z,35.01
2023-03-28T11:45:54.986Z,34.54
2023-03-28T11:48:26.514Z,34.05
2023-03-28T11:50:58.244Z,34.31
2023-03-28T11:53:30.319Z,33.71
2023-03-28T11:56:02.949Z,33.50
2023-03-28T11:58:34.439Z,35.17
2023-03-28T12:01:06.603Z,35.47
2023-03-28T12:03:38.601Z,37.59
2023-03-28T12:06:11.018Z,37.60
2023-03-28T12:08:42.647Z,36.82
2023-03-28T12:11:14.538Z,35.53
2023-03-28T12:13:48.325Z,34.92
2023-03-28T12:16:24.376Z,33.07
2023-03-28T12:18:58.525Z,33.46
2023-03-28T12:21:30.037Z,34.88
2023-03-28T12:24:01.980Z,33.60
2023-03-28T12:26:33.459Z,34.36
2023-03-28T12:29:05.253Z,33.88
2023-03-28T12:31:38.108Z,36.00
2023-03-28T12:34:09.925Z,36.52
2023-03-28T12:36:41.429Z,35.30
2023-03-28T12:39:13.333Z,34.70
2023-03-28T12:41:44.829Z,34.98
2023-03-28T12:44:16.494Z,33.94
2023-03-28T12:46:47.984Z,33.71
2023-03-28T12:49:19.906Z,34.97
2023-03-28T12:51:51.480Z,35.63
2023-03-28T12:54:22.998Z,34.33
2023-03-28T12:56:54.499Z,33.54
2023-03-28T12:59:26.952Z,35.00
2023-03-28T13:01:58.487Z,33.53
2023-03-28T13:04:30.446Z,32.53
2023-03-28T13:07:03.149Z,34.20
2023-03-28T13:09:34.945Z,34.11
2023-03-28T13:12:06.537Z,33.80
2023-03-28T13:14:38.457Z,33.43
2023-03-28T13:17:10.317Z,33.59
2023-03-28T13:19:42.257Z,34.02
2023-03-28T13:22:13.739Z,33.43
2023-03-28T13:24:45.652Z,32.93
2023-03-28T13:27:17.712Z,32.82
2023-03-28T13:29:49.451Z,33.43
2023-03-28T13:32:20.922Z,33.20
2023-03-28T13:34:52.764Z,31.82
2023-03-28T13:37:24.259Z,32.31
2023-03-28T13:39:56.293Z,31.76
2023-03-28T13:42:27.860Z,31.19
2023-03-28T13:44:59.398Z,31.98
2023-03-28T13:47:31.323Z,32.91
2023-03-28T13:50:03.317Z,32.79
2023-03-28T13:52:34.821Z,32.38
2023-03-28T13:55:06.674Z,32.67
2023-03-28T13:57:38.148Z,32.07
2023-03-28T14:00:12.040Z,31.54
2023-03-28T14:02:43.672Z,31.98
2023-03-28T14:05:15.753Z,31.63
2023-03-28T14:07:47.328Z,33.71
2023-03-28T14:10:19.233Z,32.94
2023-03-28T14:12:50.703Z,32.13
2023-03-28T14:15:22.657Z,31.96
2023-03-28T14:17:54.241Z,32.01
2023-03-28T14:20:26.048Z,32.24
2023-03-28T14:23:00.962Z,32.45
2023-03-28T14:25:33.356Z,31.29
2023-03-28T14:28:05.247Z,30.54
2023-03-28T14:30:36.771Z,31.03
2023-03-28T14:33:08.951Z,30.56
2023-03-28T14:35:46.040Z,30.08
2023-03-28T14:38:17.619Z,29.66
2023-03-28T14:40:49.129Z,30.02
2023-03-28T14:43:20.628Z,30.86
2023-03-28T14:45:54.112Z,31.64
2023-03-28T14:48:26.645Z,30.83
2023-03-28T14:50:58.237Z,30.06
2023-03-28T14:53:30.204Z,30.31
2023-03-28T14:56:04.018Z,30.81
2023-03-28T14:58:36.786Z,30.11
2023-03-28T15:01:09.200Z,31.24
2023-03-28T15:03:41.513Z,31.03
2023-03-28T15:06:13.461Z,30.61
2023-03-28T15:08:45.055Z,31.16
2023-03-28T15:11:16.630Z,30.71
2023-03-28T15:13:48.180Z,30.76
2023-03-28T15:16:20.130Z,30.91
2023-03-28T15:18:51.740Z,31.70
2023-03-28T15:21:24.058Z,31.29
2023-03-28T15:23:55.770Z,31.59
2023-03-28T15:26:28.117Z,31.79
2023-03-28T15:28:59.596Z,32.01
2023-03-28T15:31:31.394Z,33.64
2023-03-28T15:34:02.967Z,34.45
2023-03-28T15:36:34.871Z,33.50
2023-03-28T15:39:06.514Z,33.69
2023-03-28T15:41:38.321Z,34.40
2023-03-28T15:44:10.321Z,35.70
2023-03-28T15:46:42.261Z,36.75
2023-03-28T15:49:14.085Z,38.20
2023-03-28T15:51:46.086Z,37.84
2023-03-28T15:54:30.329Z,38.24
2023-03-28T15:57:03.481Z,39.29
2023-03-28T15:59:35.098Z,38.92
2023-03-28T16:02:07.018Z,39.96
2023-03-28T16:04:38.596Z,39.73
2023-03-28T16:07:10.501Z,39.99
2023-03-28T16:09:43.225Z,40.29
2023-03-28T16:12:14.924Z,39.51
2023-03-28T16:14:47.383Z,39.42
2023-03-28T16:17:18.940Z,39.16
2023-03-28T16:19:50.595Z,39.46
2023-03-28T16:22:22.490Z,40.22
2023-03-28T16:24:54.001Z,40.22
2023-03-28T16:27:26.097Z,40.73
2023-03-28T16:29:57.985Z,40.30
2023-03-28T16:32:29.869Z,40.59
2023-03-28T16:35:01.437Z,40.31
2023-03-28T16:37:32.960Z,40.60
2023-03-28T16:40:04.819Z,40.67
2023-03-28T16:42:36.304Z,41.23
2023-03-28T16:45:11.345Z,41.86
2023-03-28T16:47:42.906Z,42.16
2023-03-28T16:50:14.914Z,42.56
2023-03-28T16:52:46.426Z,42.89
2023-03-28T16:55:18.245Z,43.19
2023-03-28T16:57:49.732Z,43.25
2023-03-28T17:00:23.028Z,42.83
2023-03-28T17:02:54.917Z,43.15
2023-03-28T17:05:27.283Z,44.13
2023-03-28T17:07:59.614Z,44.52
2023-03-28T17:10:31.606Z,44.58
2023-03-28T17:13:03.128Z,44.75
2023-03-28T17:15:35.368Z,44.85
2023-03-28T17:18:06.998Z,44.77
2023-03-28T17:20:38.603Z,46.15
2023-03-28T17:23:10.096Z,45.99
2023-03-28T17:25:53.805Z,47.33
2023-03-28T17:28:26.396Z,47.34
2023-03-28T17:30:57.967Z,47.69
2023-03-28T17:33:31.164Z,48.22
2023-03-28T17:36:03.040Z,48.59
2023-03-28T17:38:34.720Z,49.55
2023-03-28T17:41:07.438Z,49.24
2023-03-28T17:43:38.914Z,49.15
2023-03-28T17:46:10.802Z,49.15
2023-03-28T17:48:42.425Z,49.25
2023-03-28T17:51:14.312Z,50.57
2023-03-28T17:53:46.936Z,50.47
2023-03-28T17:56:18.721Z,50.82
2023-03-28T17:58:50.259Z,51.22
2023-03-28T18:01:22.825Z,51.69
2023-03-28T18:03:54.465Z,52.30
2023-03-28T18:06:26.345Z,53.13
2023-03-28T18:08:57.813Z,53.41
2023-03-28T18:11:29.744Z,54.12
2023-03-28T18:14:01.339Z,53.88
2023-03-28T18:16:33.679Z,54.17
2023-03-28T18:19:06.750Z,56.24
2023-03-28T18:21:38.631Z,56.72
2023-03-28T18:24:10.120Z,57.54
2023-03-28T18:26:42.226Z,58.71
2023-03-28T18:29:14.346Z,57.93
2023-03-28T18:31:46.265Z,58.02
2023-03-28T18:34:17.803Z,59.44
2023-03-28T18:36:49.649Z,59.10
2023-03-28T18:39:23.072Z,60.31
2023-03-28T18:41:54.691Z,59.60
2023-03-28T18:44:26.184Z,64.03
2023-03-28T18:46:58.292Z,63.42
2023-03-28T18:49:30.823Z,63.10
2023-03-28T18:52:05.739Z,60.96
2023-03-28T18:54:37.650Z,60.42
2023-03-28T18:57:09.360Z,59.88
2023-03-28T18:59:41.742Z,59.64
2023-03-28T19:02:14.265Z,59.23
2023-03-28T19:04:46.551Z,61.13
2023-03-28T19:07:18.497Z,60.44
2023-03-28T19:09:50.147Z,62.83
2023-03-28T19:12:21.914Z,61.48
2023-03-28T19:14:53.407Z,59.99
2023-03-28T19:17:25.161Z,60.01
2023-03-28T19:19:56.696Z,60.64
2023-03-28T19:22:28.476Z,60.51
2023-03-28T19:25:00.062Z,61.28
2023-03-28T19:27:31.997Z,61.79
2023-03-28T19:30:04.223Z,62.48
2023-03-28T19:32:36.494Z,62.58
2023-03-28T19:35:08.011Z,63.91
2023-03-28T19:37:39.969Z,64.94
2023-03-28T19:40:16.365Z,65.84
2023-03-28T19:42:48.285Z,65.86
2023-03-28T19:45:19.777Z,66.51
2023-03-28T19:47:51.838Z,66.94
2023-03-28T19:50:23.408Z,67.68
2023-03-28T19:52:54.994Z,68.31
2023-03-28T19:55:26.548Z,69.23
2023-03-28T19:57:58.325Z,69.79
2023-03-28T20:00:29.807Z,70.38
2023-03-28T20:03:02.899Z,71.41
2023-03-28T20:05:34.659Z,71.52
2023-03-28T20:08:06.611Z,71.93
2023-03-28T20:10:38.160Z,71.90
2023-03-28T20:13:09.701Z,71.60
2023-03-28T20:15:41.376Z,70.90
2023-03-28T20:18:19.726Z,71.69
2023-03-28T20:20:51.814Z,71.87
2023-03-28T20:23:23.885Z,72.66
2023-03-28T20:25:55.557Z,72.91
2023-03-28T20:28:29.893Z,73.61
2023-03-28T20:31:01.655Z,74.92
2023-03-28T20:33:33.530Z,75.57
2023-03-28T20:36:05.883Z,75.24
2023-03-28T20:38:37.897Z,75.75
2023-03-28T20:41:09.408Z,75.96
2023-03-28T20:43:47.429Z,75.82
2023-03-28T20:46:19.880Z,76.28
2023-03-28T20:48:52.236Z,77.70
2023-03-28T20:51:26.252Z,79.09
2023-03-28T20:53:58.644Z,78.50
2023-03-28T20:56:30.577Z,78.70
2023-03-28T20:59:04.308Z,79.07
2023-03-28T21:01:39.813Z,81.73
2023-03-28T21:04:11.717Z,82.11
2023-03-28T21:06:45.323Z,82.03
2023-03-28T21:09:18.060Z,83.13
2023-03-28T21:11:50.274Z,83.62
2023-03-28T21:14:21.825Z,81.58
2023-03-28T21:16:54.293Z,82.51
2023-03-28T21:19:26.093Z,82.21
2023-03-28T21:21:57.632Z,82.55
2023-03-28T21:24:29.318Z,83.00
2023-03-28T21:27:00.857Z,81.92
2023-03-28T21:29:32.622Z,83.46
2023-03-28T21:32:04.768Z,83.50
2023-03-28T21:34:36.704Z,84.78
2023-03-28T21:37:08.556Z,84.07
2023-03-28T21:39:40.120Z,83.70
2023-03-28T21:42:12.478Z,84.37
2023-03-28T21:44:44.015Z,87.66
2023-03-28T21:47:15.916Z,85.58
2023-03-28T21:49:49.400Z,85.79
2023-03-28T21:52:21.164Z,85.69
2023-03-28T21:54:52.703Z,87.14
2023-03-28T21:57:24.607Z,87.76
2023-03-28T21:59:56.167Z,87.01
2023-03-28T22:02:27.812Z,87.42
2023-03-28T22:04:59.390Z,87.08
2023-03-28T22:07:31.361Z,87.08
2023-03-28T22:10:03.879Z,87.61
2023-03-28T22:12:35.742Z,88.31
2023-03-28T22:15:07.783Z,88.44
2023-03-28T22:17:41.150Z,88.19
2023-03-28T22:20:12.748Z,89.12
2023-03-28T22:22:45.325Z,89.33
2023-03-28T22:25:16.835Z,89.85
2023-03-28T22:27:48.609Z,89.61
2023-03-28T22:30:20.441Z,90.87
2023-03-28T22:32:52.400Z,90.46
2023-03-28T22:35:23.934Z,91.33
2023-03-28T22:37:55.469Z,91.34
2023-03-28T22:40:27.029Z,91.54
2023-03-28T22:42:58.553Z,93.09
2023-03-28T22:45:30.112Z,93.08
2023-03-28T22:48:03.556Z,93.15
2023-03-28T22:50:35.093Z,93.69
2023-03-28T22:53:07.168Z,94.05
2023-03-28T22:55:38.707Z,93.78
2023-03-28T22:58:10.460Z,95.16
2023-03-28T23:00:43.712Z,94.25
2023-03-28T23:03:15.701Z,94.99
2023-03-28T23:05:47.705Z,95.27
2023-03-28T23:08:19.569Z,95.77
2023-03-28T23:10:51.608Z,96.13
2023-03-28T23:13:23.523Z,97.04
2023-03-28T23:15:55.446Z,97.84
2023-03-28T23:18:27.424Z,97.74
2023-03-28T23:20:59.130Z,97.38
2023-03-28T23:23:32.666Z,97.31
2023-03-28T23:26:04.190Z,97.96
2023-03-28T23:28:36.353Z,99.13
2023-03-28T23:31:07.873Z,99.25
2023-03-28T23:33:40.021Z,97.80
2023-03-28T23:36:11.884Z,98.94
2023-03-28T23:38:43.822Z,98.45
2023-03-28T23:41:15.538Z,99.35
2023-03-28T23:43:47.091Z,99.71
2023-03-28T23:46:18.738Z,100.00
2023-03-28T23:48:51.057Z,100.00
2023-03-28T23:51:24.389Z,100.00
2023-03-28T23:53:56.319Z,100.00
2023-03-28T23:56:27.868Z,100.00
2023-03-28T23:58:59.550Z,100.00
